sensor_id;sensor_type;location;lat;lon;timestamp;temperature;humidity
3053;DHT22;1536;51.098;6.414;2022-12-07T00:02:26;7.10;99.90
3053;DHT22;1536;51.098;6.414;2022-12-07T00:04:52;7.10;99.90
3053;DHT22;1536;51.098;6.414;2022-12-07T00:07:19;7.10;99.90
3053;DHT22;1536;51.098;6.414;2022-12-07T00:09:47;7.10;99.90
3053;DHT22;1536;51.098;6.414;2022-12-07T00:12:14;7.10;99.90
3053;DHT22;1536;51.098;6.414;2022-12-07T00:14:41;7.10;99.90
3053;DHT22;1536;51.098;6.414;2022-12-07T00:17:07;7.10;99.90
3053;DHT22;1536;51.098;6.414;2022-12-07T00:19:34;7.00;99.90
3053;DHT22;1536;51.098;6.414;2022-12-07T00:22:01;7.00;99.90
3053;DHT22;1536;51.098;6.414;2022-12-07T00:24:27;7.00;99.90
3053;DHT22;1536;51.098;6.414;2022-12-07T00:26:55;7.00;99.90
3053;DHT22;1536;51.098;6.414;2022-12-07T00:29:22;7.00;99.90
3053;DHT22;1536;51.098;6.414;2022-12-07T00:31:49;7.00;99.90
3053;DHT22;1536;51.098;6.414;2022-12-07T00:34:17;7.00;99.90
3053;DHT22;1536;51.098;6.414;2022-12-07T00:36:45;7.00;99.90
3053;DHT22;1536;51.098;6.414;2022-12-07T00:39:12;7.00;99.90
3053;DHT22;1536;51.098;6.414;2022-12-07T00:41:38;7.00;99.90
3053;DHT22;1536;51.098;6.414;2022-12-07T00:44:06;7.00;99.90
3053;DHT22;1536;51.098;6.414;2022-12-07T00:46:33;7.00;99.90
3053;DHT22;1536;51.098;6.414;2022-12-07T00:49:00;7.10;99.90
3053;DHT22;1536;51.098;6.414;2022-12-07T00:51:27;7.10;99.90
3053;DHT22;1536;51.098;6.414;2022-12-07T00:53:54;7.10;99.90
3053;DHT22;1536;51.098;6.414;2022-12-07T00:56:22;7.10;99.90
3053;DHT22;1536;51.098;6.414;2022-12-07T00:58:51;7.10;99.90
3053;DHT22;1536;51.098;6.414;2022-12-07T01:01:19;7.10;99.90
3053;DHT22;1536;51.098;6.414;2022-12-07T01:03:46;7.10;99.90
3053;DHT22;1536;51.098;6.414;2022-12-07T01:06:14;7.10;99.90
3053;DHT22;1536;51.098;6.414;2022-12-07T01:08:42;7.10;99.90
3053;DHT22;1536;51.098;6.414;2022-12-07T01:11:12;7.10;99.90
3053;DHT22;1536;51.098;6.414;2022-12-07T01:13:39;7.10;99.90
3053;DHT22;1536;51.098;6.414;2022-12-07T01:16:07;7.10;99.90
3053;DHT22;1536;51.098;6.414;2022-12-07T01:18:36;7.10;99.90
3053;DHT22;1536;51.098;6.414;2022-12-07T01:21:05;7.10;99.90
3053;DHT22;1536;51.098;6.414;2022-12-07T01:23:32;7.10;99.90
3053;DHT22;1536;51.098;6.414;2022-12-07T01:26:00;7.10;99.90
3053;DHT22;1536;51.098;6.414;2022-12-07T01:28:28;7.10;99.90
3053;DHT22;1536;51.098;6.414;2022-12-07T01:30:56;7.10;99.90
3053;DHT22;1536;51.098;6.414;2022-12-07T01:33:23;7.10;99.90
3053;DHT22;1536;51.098;6.414;2022-12-07T01:35:51;7.10;99.90
3053;DHT22;1536;51.098;6.414;2022-12-07T01:38:17;7.10;99.90
3053;DHT22;1536;51.098;6.414;2022-12-07T01:40:44;7.10;99.90
3053;DHT22;1536;51.098;6.414;2022-12-07T01:43:16;7.10;99.90
3053;DHT22;1536;51.098;6.414;2022-12-07T01:45:44;7.20;99.90
3053;DHT22;1536;51.098;6.414;2022-12-07T01:48:13;7.10;99.90
3053;DHT22;1536;51.098;6.414;2022-12-07T01:50:43;7.20;99.90
3053;DHT22;1536;51.098;6.414;2022-12-07T01:53:13;7.10;99.90
3053;DHT22;1536;51.098;6.414;2022-12-07T01:55:42;7.10;99.90
3053;DHT22;1536;51.098;6.414;2022-12-07T01:58:12;7.10;99.90
3053;DHT22;1536;51.098;6.414;2022-12-07T02:00:41;7.10;99.90
3053;DHT22;1536;51.098;6.414;2022-12-07T02:03:11;7.10;99.90
3053;DHT22;1536;51.098;6.414;2022-12-07T02:05:41;7.10;99.90
3053;DHT22;1536;51.098;6.414;2022-12-07T02:08:09;7.10;99.90
3053;DHT22;1536;51.098;6.414;2022-12-07T02:10:39;7.10;99.90
3053;DHT22;1536;51.098;6.414;2022-12-07T02:13:09;7.10;99.90
3053;DHT22;1536;51.098;6.414;2022-12-07T02:15:45;7.10;99.90
3053;DHT22;1536;51.098;6.414;2022-12-07T02:18:25;7.00;99.90
3053;DHT22;1536;51.098;6.414;2022-12-07T02:20:58;7.00;99.90
3053;DHT22;1536;51.098;6.414;2022-12-07T02:26:59;7.00;99.90
3053;DHT22;1536;51.098;6.414;2022-12-07T02:29:33;7.00;99.90
3053;DHT22;1536;51.098;6.414;2022-12-07T02:32:05;7.00;99.90
3053;DHT22;1536;51.098;6.414;2022-12-07T02:34:42;7.00;99.90
3053;DHT22;1536;51.098;6.414;2022-12-07T02:37:25;7.00;99.90
3053;DHT22;1536;51.098;6.414;2022-12-07T02:39:58;7.00;99.90
3053;DHT22;1536;51.098;6.414;2022-12-07T02:42:30;7.00;99.90
3053;DHT22;1536;51.098;6.414;2022-12-07T02:45:00;7.00;99.90
3053;DHT22;1536;51.098;6.414;2022-12-07T02:47:28;7.00;99.90
3053;DHT22;1536;51.098;6.414;2022-12-07T02:49:56;7.00;99.90
3053;DHT22;1536;51.098;6.414;2022-12-07T02:52:22;7.00;99.90
3053;DHT22;1536;51.098;6.414;2022-12-07T02:54:49;7.00;99.90
3053;DHT22;1536;51.098;6.414;2022-12-07T02:57:27;7.00;99.90
3053;DHT22;1536;51.098;6.414;2022-12-07T03:00:03;7.00;99.90
3053;DHT22;1536;51.098;6.414;2022-12-07T03:02:37;7.00;99.90
3053;DHT22;1536;51.098;6.414;2022-12-07T03:05:25;7.00;99.90
3053;DHT22;1536;51.098;6.414;2022-12-07T03:07:59;7.00;99.90
3053;DHT22;1536;51.098;6.414;2022-12-07T03:10:34;7.00;99.90
3053;DHT22;1536;51.098;6.414;2022-12-07T03:13:04;7.00;99.90
3053;DHT22;1536;51.098;6.414;2022-12-07T03:15:40;7.00;99.90
3053;DHT22;1536;51.098;6.414;2022-12-07T03:18:09;7.00;99.90
3053;DHT22;1536;51.098;6.414;2022-12-07T03:20:38;7.00;99.90
3053;DHT22;1536;51.098;6.414;2022-12-07T03:23:07;7.00;99.90
3053;DHT22;1536;51.098;6.414;2022-12-07T03:25:39;7.00;99.90
3053;DHT22;1536;51.098;6.414;2022-12-07T03:28:07;7.00;99.90
3053;DHT22;1536;51.098;6.414;2022-12-07T03:30:41;7.00;99.90
3053;DHT22;1536;51.098;6.414;2022-12-07T03:33:12;6.90;99.90
3053;DHT22;1536;51.098;6.414;2022-12-07T03:35:43;6.90;99.90
3053;DHT22;1536;51.098;6.414;2022-12-07T03:38:15;6.90;99.90
3053;DHT22;1536;51.098;6.414;2022-12-07T03:40:47;6.90;99.90
3053;DHT22;1536;51.098;6.414;2022-12-07T03:43:17;6.90;99.90
3053;DHT22;1536;51.098;6.414;2022-12-07T03:45:57;6.90;99.90
3053;DHT22;1536;51.098;6.414;2022-12-07T03:48:32;6.90;99.90
3053;DHT22;1536;51.098;6.414;2022-12-07T03:51:06;6.90;99.90
3053;DHT22;1536;51.098;6.414;2022-12-07T03:53:39;6.90;99.90
3053;DHT22;1536;51.098;6.414;2022-12-07T03:56:07;6.90;99.90
3053;DHT22;1536;51.098;6.414;2022-12-07T03:58:35;6.90;99.90
3053;DHT22;1536;51.098;6.414;2022-12-07T04:01:03;6.90;99.90
3053;DHT22;1536;51.098;6.414;2022-12-07T04:03:30;6.90;99.90
3053;DHT22;1536;51.098;6.414;2022-12-07T04:05:57;7.00;99.90
3053;DHT22;1536;51.098;6.414;2022-12-07T04:08:24;7.00;99.90
3053;DHT22;1536;51.098;6.414;2022-12-07T04:10:51;7.00;99.90
3053;DHT22;1536;51.098;6.414;2022-12-07T04:13:18;6.90;99.90
3053;DHT22;1536;51.098;6.414;2022-12-07T04:15:44;6.90;99.90
3053;DHT22;1536;51.098;6.414;2022-12-07T04:18:12;6.90;99.90
3053;DHT22;1536;51.098;6.414;2022-12-07T04:20:39;6.80;99.90
3053;DHT22;1536;51.098;6.414;2022-12-07T04:23:06;6.80;99.90
3053;DHT22;1536;51.098;6.414;2022-12-07T04:25:33;6.80;99.90
3053;DHT22;1536;51.098;6.414;2022-12-07T04:28:00;6.70;99.90
3053;DHT22;1536;51.098;6.414;2022-12-07T04:30:26;6.70;99.90
3053;DHT22;1536;51.098;6.414;2022-12-07T04:32:53;6.70;99.90
3053;DHT22;1536;51.098;6.414;2022-12-07T04:35:21;6.70;99.90
3053;DHT22;1536;51.098;6.414;2022-12-07T04:37:48;6.60;99.90
3053;DHT22;1536;51.098;6.414;2022-12-07T04:40:14;6.60;99.90
3053;DHT22;1536;51.098;6.414;2022-12-07T04:42:41;6.60;99.90
3053;DHT22;1536;51.098;6.414;2022-12-07T04:45:09;6.60;99.90
3053;DHT22;1536;51.098;6.414;2022-12-07T04:47:35;6.70;99.90
3053;DHT22;1536;51.098;6.414;2022-12-07T04:50:03;6.70;99.90
3053;DHT22;1536;51.098;6.414;2022-12-07T04:52:31;6.70;99.90
3053;DHT22;1536;51.098;6.414;2022-12-07T04:54:58;6.70;99.90
3053;DHT22;1536;51.098;6.414;2022-12-07T04:57:25;6.70;99.90
3053;DHT22;1536;51.098;6.414;2022-12-07T04:59:51;6.70;99.90
3053;DHT22;1536;51.098;6.414;2022-12-07T05:02:18;6.70;99.90
3053;DHT22;1536;51.098;6.414;2022-12-07T05:04:45;6.70;99.90
3053;DHT22;1536;51.098;6.414;2022-12-07T05:07:11;6.70;99.90
3053;DHT22;1536;51.098;6.414;2022-12-07T05:09:39;6.70;99.90
3053;DHT22;1536;51.098;6.414;2022-12-07T05:12:06;6.70;99.90
3053;DHT22;1536;51.098;6.414;2022-12-07T05:14:33;6.70;99.90
3053;DHT22;1536;51.098;6.414;2022-12-07T05:16:59;6.70;99.90
3053;DHT22;1536;51.098;6.414;2022-12-07T05:19:26;6.70;99.90
3053;DHT22;1536;51.098;6.414;2022-12-07T05:21:53;6.70;99.90
3053;DHT22;1536;51.098;6.414;2022-12-07T05:24:19;6.60;99.90
3053;DHT22;1536;51.098;6.414;2022-12-07T05:26:47;6.70;99.90
3053;DHT22;1536;51.098;6.414;2022-12-07T05:29:16;6.70;99.90
3053;DHT22;1536;51.098;6.414;2022-12-07T05:31:43;6.70;99.90
3053;DHT22;1536;51.098;6.414;2022-12-07T05:34:10;6.70;99.90
3053;DHT22;1536;51.098;6.414;2022-12-07T05:36:37;6.70;99.90
3053;DHT22;1536;51.098;6.414;2022-12-07T05:39:04;6.70;99.90
3053;DHT22;1536;51.098;6.414;2022-12-07T05:41:31;6.70;99.90
3053;DHT22;1536;51.098;6.414;2022-12-07T05:44:16;6.70;99.90
3053;DHT22;1536;51.098;6.414;2022-12-07T05:46:43;6.70;99.90
3053;DHT22;1536;51.098;6.414;2022-12-07T05:49:10;6.70;99.90
3053;DHT22;1536;51.098;6.414;2022-12-07T05:51:36;6.80;99.90
3053;DHT22;1536;51.098;6.414;2022-12-07T05:54:03;6.70;99.90
3053;DHT22;1536;51.098;6.414;2022-12-07T05:56:30;6.80;99.90
3053;DHT22;1536;51.098;6.414;2022-12-07T05:58:56;6.70;99.90
3053;DHT22;1536;51.098;6.414;2022-12-07T06:01:42;6.70;99.90
3053;DHT22;1536;51.098;6.414;2022-12-07T06:04:09;6.70;99.90
3053;DHT22;1536;51.098;6.414;2022-12-07T06:06:35;6.80;99.90
3053;DHT22;1536;51.098;6.414;2022-12-07T06:09:02;6.70;99.90
3053;DHT22;1536;51.098;6.414;2022-12-07T06:11:29;6.80;99.90
3053;DHT22;1536;51.098;6.414;2022-12-07T06:14:13;6.80;99.90
3053;DHT22;1536;51.098;6.414;2022-12-07T06:16:39;6.80;99.90
3053;DHT22;1536;51.098;6.414;2022-12-07T06:19:07;6.80;99.90
3053;DHT22;1536;51.098;6.414;2022-12-07T06:21:34;6.80;99.90
3053;DHT22;1536;51.098;6.414;2022-12-07T06:24:01;6.80;99.90
3053;DHT22;1536;51.098;6.414;2022-12-07T06:26:28;6.80;99.90
3053;DHT22;1536;51.098;6.414;2022-12-07T06:28:54;6.80;99.90
3053;DHT22;1536;51.098;6.414;2022-12-07T06:31:21;6.80;99.90
3053;DHT22;1536;51.098;6.414;2022-12-07T06:33:48;6.80;99.90
3053;DHT22;1536;51.098;6.414;2022-12-07T06:36:16;6.80;99.90
3053;DHT22;1536;51.098;6.414;2022-12-07T06:38:43;6.80;99.90
3053;DHT22;1536;51.098;6.414;2022-12-07T06:41:10;6.80;99.90
3053;DHT22;1536;51.098;6.414;2022-12-07T06:43:36;6.80;99.90
3053;DHT22;1536;51.098;6.414;2022-12-07T06:46:03;6.80;99.90
3053;DHT22;1536;51.098;6.414;2022-12-07T06:48:30;6.80;99.90
3053;DHT22;1536;51.098;6.414;2022-12-07T06:50:57;6.80;99.90
3053;DHT22;1536;51.098;6.414;2022-12-07T06:53:25;6.80;99.90
3053;DHT22;1536;51.098;6.414;2022-12-07T06:55:52;6.80;99.90
3053;DHT22;1536;51.098;6.414;2022-12-07T06:58:18;6.80;99.90
3053;DHT22;1536;51.098;6.414;2022-12-07T07:02:23;6.80;99.90
3053;DHT22;1536;51.098;6.414;2022-12-07T07:04:49;6.80;99.90
3053;DHT22;1536;51.098;6.414;2022-12-07T07:07:16;6.70;99.90
3053;DHT22;1536;51.098;6.414;2022-12-07T07:09:43;6.70;99.90
3053;DHT22;1536;51.098;6.414;2022-12-07T07:12:09;6.70;99.90
3053;DHT22;1536;51.098;6.414;2022-12-07T07:14:36;6.60;99.90
3053;DHT22;1536;51.098;6.414;2022-12-07T07:17:02;6.60;99.90
3053;DHT22;1536;51.098;6.414;2022-12-07T07:19:30;6.60;99.90
3053;DHT22;1536;51.098;6.414;2022-12-07T07:21:57;6.50;99.90
3053;DHT22;1536;51.098;6.414;2022-12-07T07:24:24;6.50;99.90
3053;DHT22;1536;51.098;6.414;2022-12-07T07:26:50;6.50;99.90
3053;DHT22;1536;51.098;6.414;2022-12-07T07:29:17;6.40;99.90
3053;DHT22;1536;51.098;6.414;2022-12-07T07:31:44;6.40;99.90
3053;DHT22;1536;51.098;6.414;2022-12-07T07:34:10;6.40;99.90
3053;DHT22;1536;51.098;6.414;2022-12-07T07:36:38;6.40;99.90
3053;DHT22;1536;51.098;6.414;2022-12-07T07:39:05;6.40;99.90
3053;DHT22;1536;51.098;6.414;2022-12-07T07:41:32;6.40;99.90
3053;DHT22;1536;51.098;6.414;2022-12-07T07:43:58;6.40;99.90
3053;DHT22;1536;51.098;6.414;2022-12-07T07:46:25;6.50;99.90
3053;DHT22;1536;51.098;6.414;2022-12-07T07:48:51;6.50;99.90
3053;DHT22;1536;51.098;6.414;2022-12-07T07:51:18;6.50;99.90
3053;DHT22;1536;51.098;6.414;2022-12-07T07:53:46;6.50;99.90
3053;DHT22;1536;51.098;6.414;2022-12-07T07:56:13;6.50;99.90
3053;DHT22;1536;51.098;6.414;2022-12-07T07:58:39;6.50;99.90
3053;DHT22;1536;51.098;6.414;2022-12-07T08:01:07;6.50;99.90
3053;DHT22;1536;51.098;6.414;2022-12-07T08:03:34;6.60;99.90
3053;DHT22;1536;51.098;6.414;2022-12-07T08:06:01;6.60;99.90
3053;DHT22;1536;51.098;6.414;2022-12-07T08:08:28;6.60;99.90
3053;DHT22;1536;51.098;6.414;2022-12-07T08:10:56;6.60;99.90
3053;DHT22;1536;51.098;6.414;2022-12-07T08:13:25;6.70;99.90
3053;DHT22;1536;51.098;6.414;2022-12-07T08:15:52;6.70;99.90
3053;DHT22;1536;51.098;6.414;2022-12-07T08:18:19;6.60;99.90
3053;DHT22;1536;51.098;6.414;2022-12-07T08:20:46;6.60;99.90
3053;DHT22;1536;51.098;6.414;2022-12-07T08:23:13;6.60;99.90
3053;DHT22;1536;51.098;6.414;2022-12-07T08:25:40;6.60;99.90
3053;DHT22;1536;51.098;6.414;2022-12-07T08:28:08;6.70;99.90
3053;DHT22;1536;51.098;6.414;2022-12-07T08:30:35;6.70;99.90
3053;DHT22;1536;51.098;6.414;2022-12-07T08:33:02;6.70;99.90
3053;DHT22;1536;51.098;6.414;2022-12-07T08:35:29;6.70;99.90
3053;DHT22;1536;51.098;6.414;2022-12-07T08:37:56;6.70;99.90
3053;DHT22;1536;51.098;6.414;2022-12-07T08:40:23;6.80;99.90
3053;DHT22;1536;51.098;6.414;2022-12-07T08:42:50;6.80;99.90
3053;DHT22;1536;51.098;6.414;2022-12-07T08:45:20;6.80;99.90
3053;DHT22;1536;51.098;6.414;2022-12-07T08:47:50;6.80;99.90
3053;DHT22;1536;51.098;6.414;2022-12-07T08:50:17;6.90;99.90
3053;DHT22;1536;51.098;6.414;2022-12-07T08:52:48;6.90;99.90
3053;DHT22;1536;51.098;6.414;2022-12-07T08:55:17;6.90;99.90
3053;DHT22;1536;51.098;6.414;2022-12-07T08:57:44;7.00;99.90
3053;DHT22;1536;51.098;6.414;2022-12-07T09:00:13;7.00;99.90
3053;DHT22;1536;51.098;6.414;2022-12-07T09:02:41;7.00;99.90
3053;DHT22;1536;51.098;6.414;2022-12-07T09:05:08;7.00;99.90
3053;DHT22;1536;51.098;6.414;2022-12-07T09:07:35;7.00;99.90
3053;DHT22;1536;51.098;6.414;2022-12-07T09:10:03;7.00;99.90
3053;DHT22;1536;51.098;6.414;2022-12-07T09:12:30;7.10;99.90
3053;DHT22;1536;51.098;6.414;2022-12-07T09:14:57;7.10;99.90
3053;DHT22;1536;51.098;6.414;2022-12-07T09:17:23;7.10;99.90
3053;DHT22;1536;51.098;6.414;2022-12-07T09:19:51;7.20;99.90
3053;DHT22;1536;51.098;6.414;2022-12-07T09:22:18;7.20;99.90
3053;DHT22;1536;51.098;6.414;2022-12-07T09:24:45;7.20;99.90
3053;DHT22;1536;51.098;6.414;2022-12-07T09:27:12;7.20;99.90
3053;DHT22;1536;51.098;6.414;2022-12-07T09:29:39;7.30;99.90
3053;DHT22;1536;51.098;6.414;2022-12-07T09:32:06;7.30;99.90
3053;DHT22;1536;51.098;6.414;2022-12-07T09:34:32;7.40;99.90
3053;DHT22;1536;51.098;6.414;2022-12-07T09:37:01;7.40;99.90
3053;DHT22;1536;51.098;6.414;2022-12-07T09:39:29;7.40;99.90
3053;DHT22;1536;51.098;6.414;2022-12-07T09:41:57;7.50;99.90
3053;DHT22;1536;51.098;6.414;2022-12-07T09:44:25;7.50;99.90
3053;DHT22;1536;51.098;6.414;2022-12-07T09:46:52;7.60;99.90
3053;DHT22;1536;51.098;6.414;2022-12-07T09:49:21;7.60;99.90
3053;DHT22;1536;51.098;6.414;2022-12-07T09:52:00;7.60;99.90
3053;DHT22;1536;51.098;6.414;2022-12-07T09:54:29;7.60;99.90
3053;DHT22;1536;51.098;6.414;2022-12-07T09:56:56;7.60;99.90
3053;DHT22;1536;51.098;6.414;2022-12-07T09:59:23;7.60;99.90
3053;DHT22;1536;51.098;6.414;2022-12-07T10:01:50;7.60;99.90
3053;DHT22;1536;51.098;6.414;2022-12-07T10:04:18;7.60;99.90
3053;DHT22;1536;51.098;6.414;2022-12-07T10:06:47;7.60;99.90
3053;DHT22;1536;51.098;6.414;2022-12-07T10:09:17;7.60;99.90
3053;DHT22;1536;51.098;6.414;2022-12-07T10:12:04;7.60;99.90
3053;DHT22;1536;51.098;6.414;2022-12-07T10:14:33;7.60;99.90
3053;DHT22;1536;51.098;6.414;2022-12-07T10:17:00;7.60;99.90
3053;DHT22;1536;51.098;6.414;2022-12-07T10:19:29;7.60;99.90
3053;DHT22;1536;51.098;6.414;2022-12-07T10:22:09;7.60;99.90
3053;DHT22;1536;51.098;6.414;2022-12-07T10:24:36;7.60;99.90
3053;DHT22;1536;51.098;6.414;2022-12-07T10:27:17;7.70;99.90
3053;DHT22;1536;51.098;6.414;2022-12-07T10:29:48;7.70;99.90
3053;DHT22;1536;51.098;6.414;2022-12-07T10:32:29;7.80;99.90
3053;DHT22;1536;51.098;6.414;2022-12-07T10:35:19;7.80;99.90
3053;DHT22;1536;51.098;6.414;2022-12-07T10:37:46;7.90;99.90
3053;DHT22;1536;51.098;6.414;2022-12-07T10:40:25;7.90;99.90
3053;DHT22;1536;51.098;6.414;2022-12-07T10:43:03;7.90;99.90
3053;DHT22;1536;51.098;6.414;2022-12-07T10:45:29;8.00;99.90
3053;DHT22;1536;51.098;6.414;2022-12-07T10:48:02;8.00;99.90
3053;DHT22;1536;51.098;6.414;2022-12-07T10:50:54;8.00;99.90
3053;DHT22;1536;51.098;6.414;2022-12-07T10:53:47;8.10;99.90
3053;DHT22;1536;51.098;6.414;2022-12-07T10:56:42;8.10;99.90
3053;DHT22;1536;51.098;6.414;2022-12-07T10:59:36;8.20;99.90
3053;DHT22;1536;51.098;6.414;2022-12-07T11:02:21;8.20;99.90
3053;DHT22;1536;51.098;6.414;2022-12-07T11:04:59;8.20;99.90
3053;DHT22;1536;51.098;6.414;2022-12-07T11:07:38;8.20;99.90
3053;DHT22;1536;51.098;6.414;2022-12-07T11:10:12;8.20;99.90
3053;DHT22;1536;51.098;6.414;2022-12-07T11:12:49;8.20;99.90
3053;DHT22;1536;51.098;6.414;2022-12-07T11:15:22;8.20;99.90
3053;DHT22;1536;51.098;6.414;2022-12-07T11:20:43;8.30;99.90
3053;DHT22;1536;51.098;6.414;2022-12-07T11:23:19;8.30;99.90
3053;DHT22;1536;51.098;6.414;2022-12-07T11:26:04;8.30;99.90
3053;DHT22;1536;51.098;6.414;2022-12-07T11:28:46;8.30;99.90
3053;DHT22;1536;51.098;6.414;2022-12-07T11:31:23;8.40;99.90
3053;DHT22;1536;51.098;6.414;2022-12-07T11:33:56;8.40;99.90
3053;DHT22;1536;51.098;6.414;2022-12-07T11:36:35;8.40;99.90
3053;DHT22;1536;51.098;6.414;2022-12-07T11:39:07;8.40;99.90
3053;DHT22;1536;51.098;6.414;2022-12-07T11:41:38;8.30;99.90
3053;DHT22;1536;51.098;6.414;2022-12-07T11:44:08;8.30;99.90
3053;DHT22;1536;51.098;6.414;2022-12-07T11:46:49;8.30;99.90
3053;DHT22;1536;51.098;6.414;2022-12-07T11:49:22;8.30;99.90
3053;DHT22;1536;51.098;6.414;2022-12-07T11:51:54;8.30;99.90
3053;DHT22;1536;51.098;6.414;2022-12-07T11:54:26;8.20;99.90
3053;DHT22;1536;51.098;6.414;2022-12-07T11:56:56;8.20;99.90
3053;DHT22;1536;51.098;6.414;2022-12-07T11:59:31;8.20;99.90
3053;DHT22;1536;51.098;6.414;2022-12-07T12:02:11;8.20;99.90
3053;DHT22;1536;51.098;6.414;2022-12-07T12:04:47;8.10;99.90
3053;DHT22;1536;51.098;6.414;2022-12-07T12:07:21;8.10;99.90
3053;DHT22;1536;51.098;6.414;2022-12-07T12:09:51;8.10;99.90
3053;DHT22;1536;51.098;6.414;2022-12-07T12:12:31;8.10;99.90
3053;DHT22;1536;51.098;6.414;2022-12-07T12:15:14;8.00;99.90
3053;DHT22;1536;51.098;6.414;2022-12-07T12:18:17;8.00;99.90
3053;DHT22;1536;51.098;6.414;2022-12-07T12:20:55;8.00;99.90
3053;DHT22;1536;51.098;6.414;2022-12-07T12:23:24;8.00;99.90
3053;DHT22;1536;51.098;6.414;2022-12-07T12:25:54;7.90;99.90
3053;DHT22;1536;51.098;6.414;2022-12-07T12:28:25;8.00;99.90
3053;DHT22;1536;51.098;6.414;2022-12-07T12:31:09;7.90;99.90
3053;DHT22;1536;51.098;6.414;2022-12-07T12:33:38;8.00;99.90
3053;DHT22;1536;51.098;6.414;2022-12-07T12:36:43;8.00;99.90
3053;DHT22;1536;51.098;6.414;2022-12-07T12:39:12;8.00;99.90
3053;DHT22;1536;51.098;6.414;2022-12-07T12:41:57;8.10;99.90
3053;DHT22;1536;51.098;6.414;2022-12-07T12:44:42;8.10;99.90
3053;DHT22;1536;51.098;6.414;2022-12-07T12:47:57;8.10;99.90
3053;DHT22;1536;51.098;6.414;2022-12-07T12:50:30;8.20;99.90
3053;DHT22;1536;51.098;6.414;2022-12-07T12:53:13;8.20;99.90
3053;DHT22;1536;51.098;6.414;2022-12-07T12:56:03;8.30;99.90
3053;DHT22;1536;51.098;6.414;2022-12-07T12:58:43;8.30;99.90
3053;DHT22;1536;51.098;6.414;2022-12-07T13:01:44;8.40;99.90
3053;DHT22;1536;51.098;6.414;2022-12-07T13:04:34;8.50;99.90
3053;DHT22;1536;51.098;6.414;2022-12-07T13:07:12;8.50;99.90
3053;DHT22;1536;51.098;6.414;2022-12-07T13:09:43;8.60;99.90
3053;DHT22;1536;51.098;6.414;2022-12-07T13:12:13;8.60;99.90
3053;DHT22;1536;51.098;6.414;2022-12-07T13:14:58;8.60;99.90
3053;DHT22;1536;51.098;6.414;2022-12-07T13:20:43;8.70;99.90
3053;DHT22;1536;51.098;6.414;2022-12-07T13:23:13;8.70;99.90
3053;DHT22;1536;51.098;6.414;2022-12-07T13:25:53;8.80;99.90
3053;DHT22;1536;51.098;6.414;2022-12-07T13:28:22;8.80;99.90
3053;DHT22;1536;51.098;6.414;2022-12-07T13:31:16;8.80;99.90
3053;DHT22;1536;51.098;6.414;2022-12-07T13:33:46;8.80;99.90
3053;DHT22;1536;51.098;6.414;2022-12-07T13:36:19;8.80;99.90
3053;DHT22;1536;51.098;6.414;2022-12-07T13:38:54;8.80;99.90
3053;DHT22;1536;51.098;6.414;2022-12-07T13:41:22;8.80;99.90
3053;DHT22;1536;51.098;6.414;2022-12-07T13:43:53;8.80;99.90
3053;DHT22;1536;51.098;6.414;2022-12-07T13:46:25;8.80;99.90
3053;DHT22;1536;51.098;6.414;2022-12-07T13:48:52;8.80;99.90
3053;DHT22;1536;51.098;6.414;2022-12-07T13:51:23;8.80;99.90
3053;DHT22;1536;51.098;6.414;2022-12-07T13:53:53;8.80;99.90
3053;DHT22;1536;51.098;6.414;2022-12-07T13:56:28;8.80;99.90
3053;DHT22;1536;51.098;6.414;2022-12-07T13:58:58;8.80;99.90
3053;DHT22;1536;51.098;6.414;2022-12-07T14:01:25;8.80;99.90
3053;DHT22;1536;51.098;6.414;2022-12-07T14:03:52;8.80;99.90
3053;DHT22;1536;51.098;6.414;2022-12-07T14:06:26;8.80;99.90
3053;DHT22;1536;51.098;6.414;2022-12-07T14:09:08;8.80;99.90
3053;DHT22;1536;51.098;6.414;2022-12-07T14:11:35;8.80;99.90
3053;DHT22;1536;51.098;6.414;2022-12-07T14:14:03;8.80;99.90
3053;DHT22;1536;51.098;6.414;2022-12-07T14:16:31;8.70;99.90
3053;DHT22;1536;51.098;6.414;2022-12-07T14:19:00;8.70;99.90
3053;DHT22;1536;51.098;6.414;2022-12-07T14:21:28;8.60;99.90
3053;DHT22;1536;51.098;6.414;2022-12-07T14:24:15;8.60;99.90
3053;DHT22;1536;51.098;6.414;2022-12-07T14:26:44;8.50;99.90
3053;DHT22;1536;51.098;6.414;2022-12-07T14:29:32;8.40;99.90
3053;DHT22;1536;51.098;6.414;2022-12-07T14:32:20;8.40;99.90
3053;DHT22;1536;51.098;6.414;2022-12-07T14:34:59;8.30;99.90
3053;DHT22;1536;51.098;6.414;2022-12-07T14:40:13;8.10;99.90
3053;DHT22;1536;51.098;6.414;2022-12-07T14:42:41;8.00;99.90
3053;DHT22;1536;51.098;6.414;2022-12-07T14:45:13;7.90;99.90
3053;DHT22;1536;51.098;6.414;2022-12-07T14:47:41;7.90;99.90
3053;DHT22;1536;51.098;6.414;2022-12-07T14:50:10;7.80;99.90
3053;DHT22;1536;51.098;6.414;2022-12-07T14:52:38;7.80;99.90
3053;DHT22;1536;51.098;6.414;2022-12-07T14:55:14;7.70;99.90
3053;DHT22;1536;51.098;6.414;2022-12-07T15:00:25;7.60;99.90
3053;DHT22;1536;51.098;6.414;2022-12-07T15:02:52;7.50;99.90
3053;DHT22;1536;51.098;6.414;2022-12-07T15:05:19;7.50;99.90
3053;DHT22;1536;51.098;6.414;2022-12-07T15:07:46;7.40;99.90
3053;DHT22;1536;51.098;6.414;2022-12-07T15:10:18;7.40;99.90
3053;DHT22;1536;51.098;6.414;2022-12-07T15:12:45;7.30;99.90
3053;DHT22;1536;51.098;6.414;2022-12-07T15:15:12;7.30;99.90
3053;DHT22;1536;51.098;6.414;2022-12-07T15:17:39;7.20;99.90
3053;DHT22;1536;51.098;6.414;2022-12-07T15:20:09;7.20;99.90
3053;DHT22;1536;51.098;6.414;2022-12-07T15:22:37;7.10;99.90
3053;DHT22;1536;51.098;6.414;2022-12-07T15:25:05;7.00;99.90
3053;DHT22;1536;51.098;6.414;2022-12-07T15:27:33;7.00;99.90
3053;DHT22;1536;51.098;6.414;2022-12-07T15:30:00;7.00;99.90
3053;DHT22;1536;51.098;6.414;2022-12-07T15:32:26;6.90;99.90
3053;DHT22;1536;51.098;6.414;2022-12-07T15:34:53;6.90;99.90
3053;DHT22;1536;51.098;6.414;2022-12-07T15:37:20;6.80;99.90
3053;DHT22;1536;51.098;6.414;2022-12-07T15:39:46;6.80;99.90
3053;DHT22;1536;51.098;6.414;2022-12-07T15:42:13;6.70;99.90
3053;DHT22;1536;51.098;6.414;2022-12-07T15:44:41;6.70;99.90
3053;DHT22;1536;51.098;6.414;2022-12-07T15:47:25;6.70;99.90
3053;DHT22;1536;51.098;6.414;2022-12-07T15:49:52;6.60;99.90
3053;DHT22;1536;51.098;6.414;2022-12-07T15:52:19;6.60;99.90
3053;DHT22;1536;51.098;6.414;2022-12-07T15:54:45;6.60;99.90
3053;DHT22;1536;51.098;6.414;2022-12-07T15:57:13;6.60;99.90
3053;DHT22;1536;51.098;6.414;2022-12-07T15:59:41;6.50;99.90
3053;DHT22;1536;51.098;6.414;2022-12-07T16:02:08;6.50;99.90
3053;DHT22;1536;51.098;6.414;2022-12-07T16:04:36;6.50;99.90
3053;DHT22;1536;51.098;6.414;2022-12-07T16:07:03;6.50;99.90
3053;DHT22;1536;51.098;6.414;2022-12-07T16:09:29;6.40;99.90
3053;DHT22;1536;51.098;6.414;2022-12-07T16:11:56;6.40;99.90
3053;DHT22;1536;51.098;6.414;2022-12-07T16:14:23;6.40;99.90
3053;DHT22;1536;51.098;6.414;2022-12-07T16:16:51;6.40;99.90
3053;DHT22;1536;51.098;6.414;2022-12-07T16:19:17;6.50;99.90
3053;DHT22;1536;51.098;6.414;2022-12-07T16:21:44;6.50;99.90
3053;DHT22;1536;51.098;6.414;2022-12-07T16:24:11;6.50;99.90
3053;DHT22;1536;51.098;6.414;2022-12-07T16:26:40;6.50;99.90
3053;DHT22;1536;51.098;6.414;2022-12-07T16:29:10;6.50;99.90
3053;DHT22;1536;51.098;6.414;2022-12-07T16:31:37;6.50;99.90
3053;DHT22;1536;51.098;6.414;2022-12-07T16:34:06;6.50;99.90
3053;DHT22;1536;51.098;6.414;2022-12-07T16:36:33;6.60;99.90
3053;DHT22;1536;51.098;6.414;2022-12-07T16:39:00;6.60;99.90
3053;DHT22;1536;51.098;6.414;2022-12-07T16:41:27;6.60;99.90
3053;DHT22;1536;51.098;6.414;2022-12-07T16:43:54;6.60;99.90
3053;DHT22;1536;51.098;6.414;2022-12-07T16:46:20;6.60;99.90
3053;DHT22;1536;51.098;6.414;2022-12-07T16:48:47;6.70;99.90
3053;DHT22;1536;51.098;6.414;2022-12-07T16:51:16;6.70;99.90
3053;DHT22;1536;51.098;6.414;2022-12-07T16:53:42;6.70;99.90
3053;DHT22;1536;51.098;6.414;2022-12-07T16:56:10;6.70;99.90